Time;durP1;ratioP1;P1;durP2;ratioP2;P2;SDS_P1;SDS_P2;PMS_P1;PMS_P2;Temp;Humidity;BMP_temperature;BMP_pressure;BME280_temperature;BME280_humidity;BME280_pressure;Samples;Min_cycle;Max_cycle;Signal;HPM_P1;HPM_P2
2023/10/19 00:00:36;;;;;;;1.90;0.70;;;;;;;9.86;nan;100508.06;2083553;28;20027;-75
2023/10/19 00:01:41;;;;;;;1.20;0.70;;;;;;;9.88;nan;100503.22;2090100;28;20037;-76
2023/10/19 00:02:46;;;;;;;5.20;0.85;;;;;;;9.91;nan;100508.03;2082226;28;20145;-76
2023/10/19 00:03:49;;;;;;;2.45;0.70;;;;;;;9.95;nan;100509.09;2082630;28;20041;-76
2023/10/19 00:04:51;;;;;;;3.22;0.60;;;;;;;9.95;nan;100511.78;2081945;28;20021;-76
2023/10/19 00:05:52;;;;;;;1.50;0.60;;;;;;;10.00;nan;100512.84;2090464;28;20065;-76
2023/10/19 00:06:55;;;;;;;1.10;0.60;;;;;;;9.94;nan;100512.06;2090797;28;20091;-77
2023/10/19 00:08:00;;;;;;;1.85;0.70;;;;;;;9.97;nan;100514.22;2081719;28;20836;-77
2023/10/19 00:09:03;;;;;;;3.90;0.60;;;;;;;9.96;nan;100515.25;2074902;28;20817;-77
2023/10/19 00:10:06;;;;;;;2.15;0.70;;;;;;;9.97;nan;100509.63;2065542;28;20039;-80
2023/10/19 00:11:21;;;;;;;1.85;0.55;;;;;;;10.00;nan;100512.84;2073876;28;20033;-75
2023/10/19 00:12:24;;;;;;;1.25;0.63;;;;;;;9.96;nan;100510.72;2084134;28;20025;-76
2023/10/19 00:13:28;;;;;;;1.02;0.70;;;;;;;10.02;nan;100510.69;2080278;28;20045;-76
2023/10/19 00:14:32;;;;;;;1.00;0.55;;;;;;;10.00;nan;100510.97;2074748;28;20959;-76
2023/10/19 00:15:34;;;;;;;1.95;0.60;;;;;;;10.01;nan;100506.41;2090683;28;20033;-76
2023/10/19 00:16:36;;;;;;;2.25;1.23;;;;;;;10.01;nan;100506.41;2081887;28;20033;-75
2023/10/19 00:17:44;;;;;;;4.45;0.60;;;;;;;9.96;nan;100510.72;2074183;28;20038;-75
2023/10/19 00:18:48;;;;;;;1.65;0.60;;;;;;;9.92;nan;100504.28;2082550;28;20077;-75
2023/10/19 00:21:27;;;;;;;1.02;0.57;;;;;;;10.00;nan;100510.19;2057794;28;20082;-77
2023/10/19 00:22:35;;;;;;;1.40;0.77;;;;;;;9.99;nan;100503.97;2057026;28;20066;-76
2023/10/19 00:23:39;;;;;;;1.00;0.70;;;;;;;9.98;nan;100503.16;2068526;28;20074;-76
2023/10/19 00:24:41;;;;;;;1.95;0.60;;;;;;;9.98;nan;100502.38;2075111;28;20033;-75
2023/10/19 00:25:44;;;;;;;1.40;0.70;;;;;;;9.93;nan;100500.53;2073656;28;20089;-75
2023/10/19 00:26:45;;;;;;;1.10;0.50;;;;;;;9.80;nan;100501.09;2074167;28;20042;-75
2023/10/19 00:27:48;;;;;;;1.50;0.65;;;;;;;9.76;nan;100492.00;2081351;28;20797;-75
2023/10/19 00:29:14;;;;;;;1.70;0.70;;;;;;;9.80;nan;100495.72;2072702;28;20042;-76
2023/10/19 00:30:18;;;;;;;1.48;0.50;;;;;;;9.80;nan;100495.72;2083089;28;20045;-75
2023/10/19 00:31:21;;;;;;;1.15;0.70;;;;;;;9.84;nan;100496.00;2083884;28;20042;-75
2023/10/19 00:32:24;;;;;;;3.50;0.80;;;;;;;9.85;nan;100493.03;2098969;28;20025;-75
2023/10/19 00:33:32;;;;;;;0.70;0.50;;;;;;;9.87;nan;100496.25;2089836;28;20029;-75
2023/10/19 00:34:38;;;;;;;3.72;0.90;;;;;;;9.90;nan;100495.72;2083684;28;20018;-74
2023/10/19 00:35:46;;;;;;;0.65;0.60;;;;;;;9.95;nan;100498.34;2082547;28;20877;-75
2023/10/19 00:36:50;;;;;;;0.80;0.60;;;;;;;10.00;nan;100488.69;2083913;28;20072;-76
2023/10/19 00:37:55;;;;;;;1.48;0.50;;;;;;;10.05;nan;100494.00;2082049;28;20998;-75
2023/10/19 00:38:57;;;;;;;1.58;0.60;;;;;;;10.08;nan;100482.72;2082110;28;20076;-75
2023/10/19 00:40:15;;;;;;;2.13;0.80;;;;;;;10.13;nan;100485.38;2082823;28;20022;-76
2023/10/19 00:41:32;;;;;;;2.03;0.90;;;;;;;10.20;nan;100485.88;2093286;28;20099;-75
2023/10/19 00:42:38;;;;;;;1.40;0.60;;;;;;;10.26;nan;100481.28;2085102;28;20945;-76
2023/10/19 00:43:44;;;;;;;3.70;0.70;;;;;;;10.31;nan;100476.72;2083511;28;20042;-75
2023/10/19 00:44:50;;;;;;;1.23;0.63;;;;;;;10.34;nan;100468.09;2099486;28;20944;-75
2023/10/19 00:45:52;;;;;;;1.23;0.60;;;;;;;10.40;nan;100483.13;2091661;28;20879;-76
2023/10/19 00:47:03;;;;;;;3.40;0.70;;;;;;;10.43;nan;100481.72;2075196;28;20043;-76
2023/10/19 00:48:08;;;;;;;1.50;0.57;;;;;;;10.43;nan;100476.34;2085892;28;20161;-75
2023/10/19 00:49:30;;;;;;;1.15;0.55;;;;;;;10.48;nan;100472.84;2091629;28;20041;-75
2023/10/19 00:50:32;;;;;;;0.70;0.50;;;;;;;10.53;nan;100481.69;2093157;28;20077;-75
2023/10/19 00:51:42;;;;;;;1.77;0.70;;;;;;;10.53;nan;100464.72;2091681;28;20080;-76
2023/10/19 00:52:49;;;;;;;1.65;0.55;;;;;;;10.55;nan;100473.31;2092798;28;20084;-75
2023/10/19 00:53:51;;;;;;;2.58;0.63;;;;;;;10.55;nan;100476.81;2092349;28;20076;-78
2023/10/19 00:54:58;;;;;;;1.08;0.68;;;;;;;10.53;nan;100475.47;2100358;28;21015;-76
2023/10/19 00:56:00;;;;;;;1.67;1.00;;;;;;;10.49;nan;100469.84;2091306;28;20037;-76
2023/10/19 00:57:07;;;;;;;1.73;0.70;;;;;;;10.48;nan;100467.47;2083120;28;20068;-76
2023/10/19 00:58:10;;;;;;;2.30;0.65;;;;;;;10.47;nan;100465.88;2091540;28;20036;-76
2023/10/19 00:59:14;;;;;;;1.52;0.47;;;;;;;10.48;nan;100464.78;2084599;28;20152;-75
2023/10/19 01:00:29;;;;;;;1.10;0.70;;;;;;;10.49;nan;100464.47;2090996;28;20025;-75
2023/10/19 01:01:36;;;;;;;3.10;0.65;;;;;;;10.49;nan;100464.47;2099341;28;20786;-75
2023/10/19 01:02:46;;;;;;;2.17;0.70;;;;;;;10.51;nan;100456.16;2083819;28;20033;-75
2023/10/19 01:03:56;;;;;;;2.03;0.63;;;;;;;10.54;nan;100460.97;2077511;28;20022;-75
2023/10/19 01:05:05;;;;;;;1.17;0.70;;;;;;;10.56;nan;100464.16;2085639;28;20030;-75
2023/10/19 01:06:12;;;;;;;1.43;0.80;;;;;;;10.57;nan;100449.66;2091919;28;20033;-75
2023/10/19 01:07:21;;;;;;;1.25;0.70;;;;;;;10.54;nan;100455.59;2083970;28;20209;-75
2023/10/19 01:08:34;;;;;;;6.28;0.80;;;;;;;10.50;nan;100447.28;2092195;28;20764;-75
2023/10/19 01:09:36;;;;;;;1.13;0.60;;;;;;;10.49;nan;100450.25;2084725;28;20030;-75
2023/10/19 01:10:39;;;;;;;1.80;0.70;;;;;;;10.49;nan;100452.94;2083142;28;20045;-75
2023/10/19 01:11:45;;;;;;;3.78;0.60;;;;;;;10.49;nan;100452.94;2075270;28;20054;-75
2023/10/19 01:12:46;;;;;;;2.35;0.70;;;;;;;10.43;nan;100447.63;2076679;28;20038;-75
2023/10/19 01:13:48;;;;;;;1.92;0.60;;;;;;;10.46;nan;100453.50;2065971;28;20541;-75
2023/10/19 01:15:16;;;;;;;2.58;0.90;;;;;;;10.48;nan;100451.34;2082240;28;20041;-75
2023/10/19 01:16:20;;;;;;;1.00;0.63;;;;;;;10.48;nan;100448.66;2086661;28;20120;-75
2023/10/19 01:17:22;;;;;;;1.98;0.82;;;;;;;10.50;nan;100447.28;2083296;28;20843;-75
2023/10/19 01:18:29;;;;;;;4.88;0.77;;;;;;;10.53;nan;100448.59;2074651;28;20735;-75
2023/10/19 01:19:31;;;;;;;1.38;0.68;;;;;;;10.55;nan;100451.81;2086163;28;20049;-75
2023/10/19 01:20:51;;;;;;;1.67;0.77;;;;;;;10.56;nan;100437.28;2098976;28;20036;-75
2023/10/19 01:22:02;;;;;;;0.60;0.60;;;;;;;10.61;nan;100437.25;2096144;28;20315;-75
2023/10/19 01:24:16;;;;;;;1.08;0.60;;;;;;;10.63;nan;100433.19;2076215;28;20876;-75
2023/10/19 01:25:19;;;;;;;1.92;0.70;;;;;;;10.65;nan;100441.78;2075967;28;20042;-75
2023/10/19 01:26:28;;;;;;;1.23;0.60;;;;;;;10.66;nan;100440.72;2077027;28;20782;-76
2023/10/19 01:27:31;;;;;;;2.50;1.02;;;;;;;10.66;nan;100432.63;2099515;28;20083;-76
2023/10/19 01:29:43;;;;;;;1.27;0.80;;;;;;;10.70;nan;100430.19;2089724;28;20041;-75
2023/10/19 01:30:46;;;;;;;1.83;0.90;;;;;;;10.73;nan;100432.31;2083238;28;20242;-75
2023/10/19 01:31:55;;;;;;;3.25;0.80;;;;;;;10.75;nan;100430.16;2083573;28;20152;-75
2023/10/19 01:32:57;;;;;;;;;;;;;;;10.75;nan;100427.47;2091239;28;20129;-76
2023/10/19 01:34:06;;;;;;;2.13;0.80;;;;;;;10.75;nan;100419.41;2091117;28;19944;-75
2023/10/19 01:35:08;;;;;;;4.47;0.82;;;;;;;10.77;nan;100427.16;2084019;28;20942;-75
2023/10/19 01:36:10;;;;;;;2.22;1.00;;;;;;;10.75;nan;100421.25;2074575;28;20046;-75
2023/10/19 01:37:12;;;;;;;2.28;0.70;;;;;;;10.74;nan;100417.78;2074782;28;20038;-75
2023/10/19 01:38:15;;;;;;;1.17;0.80;;;;;;;10.74;nan;100414.28;2082562;28;20054;-75
2023/10/19 01:39:18;;;;;;;2.85;0.68;;;;;;;10.74;nan;100417.78;2066816;28;20035;-76
2023/10/19 01:40:20;;;;;;;1.95;0.70;;;;;;;10.75;nan;100416.72;2074876;28;20812;-75
2023/10/19 01:41:23;;;;;;;2.35;0.93;;;;;;;10.76;nan;100406.75;2074947;28;20850;-75
2023/10/19 01:42:25;;;;;;;1.20;0.68;;;;;;;10.77;nan;100411.03;2083144;28;20026;-76
2023/10/19 01:43:32;;;;;;;1.92;0.80;;;;;;;10.74;nan;100400.84;2074649;28;20100;-76
2023/10/19 01:44:36;;;;;;;2.05;1.08;;;;;;;10.77;nan;100401.06;2088034;28;20856;-75
2023/10/19 01:45:38;;;;;;;2.33;1.00;;;;;;;10.77;nan;100403.75;2090752;28;20979;-75
2023/10/19 01:46:46;;;;;;;1.83;0.80;;;;;;;10.76;nan;100396.78;2083538;28;20042;-75
2023/10/19 01:47:51;;;;;;;3.78;0.70;;;;;;;10.76;nan;100394.09;2074891;28;20031;-76
2023/10/19 01:48:56;;;;;;;2.15;0.70;;;;;;;10.74;nan;100390.88;2083778;28;20061;-76
2023/10/19 01:50:00;;;;;;;1.05;0.60;;;;;;;10.71;nan;100393.34;2098172;28;21261;-76
2023/10/19 01:51:05;;;;;;;1.27;0.60;;;;;;;10.70;nan;100387.16;2082913;28;20173;-75
2023/10/19 01:52:06;;;;;;;2.33;0.93;;;;;;;10.71;nan;100390.66;2074884;28;20038;-75
2023/10/19 01:53:15;;;;;;;2.90;0.70;;;;;;;10.71;nan;100388.75;2074869;28;20116;-75
2023/10/19 01:54:18;;;;;;;1.65;0.70;;;;;;;10.69;nan;100385.56;2075561;28;21283;-75
2023/10/19 01:55:20;;;;;;;0.70;0.50;;;;;;;10.67;nan;100380.47;2067215;28;20145;-75
2023/10/19 01:56:22;;;;;;;1.17;0.63;;;;;;;10.68;nan;100382.06;2074082;28;20042;-75
2023/10/19 01:57:28;;;;;;;1.20;0.70;;;;;;;10.64;nan;100374.84;2074798;28;20137;-75
2023/10/19 01:58:30;;;;;;;1.08;0.73;;;;;;;10.67;nan;100376.97;2075290;28;20145;-75
2023/10/19 01:59:35;;;;;;;2.85;0.93;;;;;;;10.67;nan;100379.66;2073963;28;20078;-75
2023/10/19 02:00:42;;;;;;;2.08;0.63;;;;;;;10.64;nan;100374.84;2083433;28;20034;-75
2023/10/19 02:01:45;;;;;;;1.63;0.70;;;;;;;10.57;nan;100380.56;2083526;28;20018;-75
2023/10/19 02:02:50;;;;;;;1.20;0.65;;;;;;;10.51;nan;100378.19;2075036;28;20034;-75
2023/10/19 02:03:58;;;;;;;1.15;0.73;;;;;;;10.46;nan;100379.03;2084008;28;20800;-75
2023/10/19 02:05:08;;;;;;;1.42;0.63;;;;;;;10.39;nan;100379.34;2092242;28;20033;-76
2023/10/19 02:06:17;;;;;;;2.00;0.73;;;;;;;10.38;nan;100375.06;2092299;28;20119;-76
2023/10/19 02:07:20;;;;;;;2.47;0.70;;;;;;;10.32;nan;100378.88;2084067;28;20030;-75
2023/10/19 02:08:25;;;;;;;1.55;0.60;;;;;;;10.32;nan;100384.25;2082964;28;20140;-75
2023/10/19 02:09:29;;;;;;;1.17;0.70;;;;;;;10.27;nan;100378.13;2083492;28;20137;-74
2023/10/19 02:10:32;;;;;;;1.38;0.63;;;;;;;10.20;nan;100370.34;2083443;28;20038;-75
2023/10/19 02:11:41;;;;;;;2.03;0.88;;;;;;;10.14;nan;100376.84;2074759;28;20857;-75
2023/10/19 02:12:46;;;;;;;1.30;0.60;;;;;;;10.10;nan;100371.22;2077045;28;20144;-74
2023/10/19 02:13:49;;;;;;;0.80;0.60;;;;;;;10.05;nan;100362.38;2074510;28;20048;-74
2023/10/19 02:14:55;;;;;;;2.53;0.70;;;;;;;9.93;nan;100370.78;2082076;28;20026;-75
2023/10/19 02:15:59;;;;;;;0.85;0.52;;;;;;;9.83;nan;100368.16;2075417;28;20918;-74
2023/10/19 02:17:03;;;;;;;1.42;0.70;;;;;;;9.77;nan;100367.41;2066945;28;20976;-75
2023/10/19 02:18:05;;;;;;;2.80;0.90;;;;;;;9.68;nan;100363.72;2074889;28;20149;-75
2023/10/19 02:19:07;;;;;;;1.60;0.70;;;;;;;9.61;nan;100364.00;2074631;28;20023;-75
2023/10/19 02:20:17;;;;;;;2.97;0.80;;;;;;;9.53;nan;100367.28;2083162;28;20144;-75
2023/10/19 02:21:30;;;;;;;2.13;0.70;;;;;;;9.54;nan;100365.38;2085023;28;20036;-75
2023/10/19 02:22:35;;;;;;;0.80;0.60;;;;;;;9.48;nan;100351.97;2101613;28;20144;-74
2023/10/19 02:23:37;;;;;;;2.35;0.68;;;;;;;9.42;nan;100365.69;2098814;28;20029;-74
2023/10/19 02:24:39;;;;;;;1.13;0.60;;;;;;;9.43;nan;100360.06;2091100;28;20852;-74
2023/10/19 02:25:40;;;;;;;0.85;0.63;;;;;;;9.43;nan;100353.91;2090576;28;20041;-74
2023/10/19 02:26:43;;;;;;;4.30;0.70;;;;;;;9.46;nan;100351.47;2090822;28;20835;-74
2023/10/19 02:27:48;;;;;;;1.30;0.45;;;;;;;9.46;nan;100348.78;2090412;28;20030;-74
2023/10/19 02:28:52;;;;;;;1.00;0.57;;;;;;;9.42;nan;100357.66;2092188;28;20033;-74
2023/10/19 02:29:55;;;;;;;2.78;0.65;;;;;;;9.39;nan;100355.50;2089083;28;20156;-74
2023/10/19 02:31:14;;;;;;;2.60;0.60;;;;;;;9.42;nan;100350.41;2083031;28;20078;-74
2023/10/19 02:32:18;;;;;;;2.10;0.70;;;;;;;9.45;nan;100343.69;2076560;28;20057;-75
2023/10/19 02:33:22;;;;;;;2.33;0.70;;;;;;;9.45;nan;100344.47;2067363;28;20186;-75
2023/10/19 02:34:23;;;;;;;1.98;0.88;;;;;;;9.49;nan;100350.91;2082688;28;20072;-75
2023/10/19 02:35:27;;;;;;;1.90;0.70;;;;;;;9.54;nan;100343.91;2082613;28;20029;-75
2023/10/19 02:36:29;;;;;;;1.92;0.70;;;;;;;9.57;nan;100346.03;2090835;28;20903;-75
2023/10/19 02:37:31;;;;;;;2.80;0.55;;;;;;;9.59;nan;100338.53;2090563;28;20031;-75
2023/10/19 02:38:37;;;;;;;0.80;0.52;;;;;;;9.56;nan;100339.09;2082169;28;20038;-75
2023/10/19 02:39:44;;;;;;;0.68;0.57;;;;;;;9.56;nan;100337.19;2076092;28;20249;-75
2023/10/19 02:40:48;;;;;;;1.42;0.50;;;;;;;9.56;nan;100334.50;2075427;28;20153;-74
2023/10/19 02:41:50;;;;;;;1.45;0.70;;;;;;;9.58;nan;100336.91;2068123;28;20156;-75
2023/10/19 02:42:53;;;;;;;1.65;1.10;;;;;;;9.60;nan;100335.56;2074069;28;20848;-76
2023/10/19 02:44:02;;;;;;;2.05;0.50;;;;;;;9.63;nan;100336.88;2081728;28;20972;-78
2023/10/19 02:45:06;;;;;;;2.22;0.57;;;;;;;9.62;nan;100329.94;2086531;28;20033;-76
2023/10/19 02:46:07;;;;;;;1.23;0.68;;;;;;;9.62;nan;100332.59;2081120;28;20073;-76
2023/10/19 02:47:09;;;;;;;1.98;0.63;;;;;;;9.60;nan;100324.03;2065448;28;20762;-77
2023/10/19 02:48:12;;;;;;;1.00;0.60;;;;;;;9.58;nan;100328.84;2081323;28;20034;-77
2023/10/19 02:49:20;;;;;;;0.88;0.40;;;;;;;9.55;nan;100326.72;2081542;28;20220;-77
2023/10/19 02:50:26;;;;;;;1.33;0.95;;;;;;;9.57;nan;100324.56;2075664;28;20105;-76
2023/10/19 02:51:28;;;;;;;1.63;0.68;;;;;;;9.56;nan;100328.34;2082213;28;20034;-77
2023/10/19 02:52:30;;;;;;;0.98;0.60;;;;;;;9.58;nan;100323.50;2081528;28;20014;-76
2023/10/19 02:53:32;;;;;;;2.17;0.70;;;;;;;9.60;nan;100319.44;2081716;28;20034;-76
2023/10/19 02:54:34;;;;;;;1.33;0.55;;;;;;;9.59;nan;100315.16;2081608;28;20045;-77
2023/10/19 02:55:36;;;;;;;1.40;0.70;;;;;;;9.60;nan;100318.66;2073619;28;20034;-77
2023/10/19 02:56:42;;;;;;;1.27;0.75;;;;;;;9.61;nan;100317.56;2081222;28;20155;-77
2023/10/19 02:57:47;;;;;;;2.03;0.60;;;;;;;9.58;nan;100315.44;2082610;28;20021;-77
2023/10/19 02:58:50;;;;;;;1.60;0.60;;;;;;;9.59;nan;100306.31;2074111;28;20038;-75
2023/10/19 02:59:52;;;;;;;0.50;0.50;;;;;;;9.61;nan;100312.19;2075817;28;20029;-75
2023/10/19 03:00:55;;;;;;;2.53;0.70;;;;;;;9.62;nan;100305.78;2073910;28;20140;-75
2023/10/19 03:03:08;;;;;;;2.17;0.52;;;;;;;9.66;nan;100310.28;2082002;28;20042;-76
2023/10/19 03:04:12;;;;;;;2.78;0.60;;;;;;;9.68;nan;100308.13;2065978;28;20027;-76
2023/10/19 03:05:14;;;;;;;0.70;0.43;;;;;;;9.73;nan;100307.28;2074804;28;20046;-76
2023/10/19 03:06:20;;;;;;;0.52;0.47;;;;;;;9.73;nan;100307.28;2074513;28;20952;-77
2023/10/19 03:07:24;;;;;;;0.80;0.50;;;;;;;9.69;nan;100300.88;2082748;28;20096;-77
2023/10/19 03:08:26;;;;;;;1.58;0.80;;;;;;;9.68;nan;100310.03;2066421;28;21049;-78
2023/10/19 03:09:29;;;;;;;1.83;0.50;;;;;;;9.67;nan;100303.03;2074358;28;20034;-77
2023/10/19 03:10:41;;;;;;;1.10;0.50;;;;;;;9.63;nan;100307.34;2073451;28;20073;-76
2023/10/19 03:11:45;;;;;;;1.00;0.60;;;;;;;9.55;nan;100299.88;2077136;28;20091;-75
2023/10/19 03:12:47;;;;;;;0.65;0.40;;;;;;;9.49;nan;100291.09;2082508;28;20022;-75
2023/10/19 03:13:50;;;;;;;3.42;0.50;;;;;;;9.38;nan;100302.94;2073589;28;20046;-76
2023/10/19 03:14:53;;;;;;;3.83;0.57;;;;;;;9.33;nan;100301.09;2075144;28;20038;-75
2023/10/19 03:15:57;;;;;;;2.95;0.40;;;;;;;9.35;nan;100300.81;2090485;28;20032;-75
2023/10/19 03:17:00;;;;;;;0.70;0.40;;;;;;;9.34;nan;100309.94;2074307;28;20141;-75
2023/10/19 03:18:07;;;;;;;0.88;0.50;;;;;;;9.25;nan;100296.28;2083093;28;20038;-75
2023/10/19 03:19:08;;;;;;;3.10;0.47;;;;;;;9.22;nan;100302.22;2074823;28;20034;-75
2023/10/19 03:20:12;;;;;;;2.03;0.80;;;;;;;9.21;nan;100292.56;2065923;28;20045;-75
2023/10/19 03:21:12;;;;;;;1.10;0.52;;;;;;;9.21;nan;100301.41;2074939;28;20038;-75
2023/10/19 03:22:16;;;;;;;1.00;0.60;;;;;;;9.21;nan;100301.41;2082390;28;20022;-75
2023/10/19 03:23:20;;;;;;;1.70;0.63;;;;;;;9.22;nan;100296.84;2090423;28;20080;-75
2023/10/19 03:24:36;;;;;;;2.15;0.80;;;;;;;9.21;nan;100300.63;2090362;28;20044;-75
2023/10/19 03:25:49;;;;;;;0.80;0.50;;;;;;;9.22;nan;100303.00;2090722;28;20132;-75
2023/10/19 03:26:50;;;;;;;3.40;0.68;;;;;;;9.23;nan;100296.56;2082311;28;20077;-74
2023/10/19 03:27:53;;;;;;;0.63;0.50;;;;;;;9.27;nan;100299.53;2073950;28;20084;-75
2023/10/19 03:28:56;;;;;;;2.25;0.60;;;;;;;9.28;nan;100291.19;2082272;28;20159;-75
2023/10/19 03:29:59;;;;;;;2.45;0.43;;;;;;;9.26;nan;100287.16;2076713;28;20030;-75
2023/10/19 03:31:01;;;;;;;0.57;0.32;;;;;;;9.29;nan;100289.28;2082437;28;20034;-75
2023/10/19 03:32:05;;;;;;;3.40;0.55;;;;;;;9.25;nan;100285.56;2074111;28;20031;-75
2023/10/19 03:33:11;;;;;;;1.13;0.30;;;;;;;9.19;nan;100274.06;2083372;28;20889;-75
2023/10/19 03:34:13;;;;;;;1.20;0.40;;;;;;;9.09;nan;100276.78;2090696;28;20037;-75
2023/10/19 03:35:16;;;;;;;0.20;0.20;;;;;;;9.02;nan;100279.78;2090647;28;20025;-76
2023/10/19 03:36:18;;;;;;;2.10;0.40;;;;;;;9.02;nan;100266.38;2099006;28;20795;-75
2023/10/19 03:37:20;;;;;;;1.30;0.40;;;;;;;9.03;nan;100267.97;2090451;28;20017;-75
2023/10/19 03:38:22;;;;;;;0.40;0.30;;;;;;;8.93;nan;100275.25;2066179;28;20157;-75
2023/10/19 03:39:24;;;;;;;2.55;0.73;;;;;;;8.90;nan;100268.56;2074874;28;20034;-75
2023/10/19 03:40:31;;;;;;;0.50;0.30;;;;;;;8.89;nan;100269.66;2082070;28;20038;-75
2023/10/19 03:41:36;;;;;;;0.43;0.32;;;;;;;8.93;nan;100268.00;2091501;28;20041;-76
2023/10/19 03:42:40;;;;;;;0.73;0.30;;;;;;;8.93;nan;100261.84;2090499;28;20030;-75
2023/10/19 03:43:43;;;;;;;1.08;0.35;;;;;;;8.97;nan;100263.69;2082722;28;20956;-75
2023/10/19 03:45:53;;;;;;;0.80;0.50;;;;;;;9.04;nan;100253.47;2095620;28;20091;-75
2023/10/19 03:47:03;;;;;;;0.80;0.40;;;;;;;9.05;nan;100260.44;2074448;28;20030;-75
2023/10/19 03:48:09;;;;;;;2.10;0.52;;;;;;;9.09;nan;100254.53;2070952;28;20073;-76
2023/10/19 03:49:13;;;;;;;1.17;0.50;;;;;;;9.08;nan;100247.53;2074197;28;20038;-75
2023/10/19 03:50:20;;;;;;;1.48;0.60;;;;;;;9.09;nan;100247.28;2083142;28;20022;-76
2023/10/19 03:51:24;;;;;;;3.53;0.80;;;;;;;9.14;nan;100249.13;2091057;28;20035;-76
2023/10/19 03:52:32;;;;;;;0.90;0.50;;;;;;;9.12;nan;100251.31;2098303;28;20036;-75
2023/10/19 03:53:37;;;;;;;0.95;0.80;;;;;;;9.14;nan;100258.00;2090005;28;20821;-75
2023/10/19 03:54:40;;;;;;;1.30;0.65;;;;;;;9.17;nan;100254.75;2091123;28;20056;-75
2023/10/19 03:55:44;;;;;;;0.95;0.60;;;;;;;9.20;nan;100256.88;2098646;28;20972;-75
2023/10/19 03:56:45;;;;;;;1.48;0.57;;;;;;;9.23;nan;100258.19;2090471;28;20072;-75
2023/10/19 03:57:51;;;;;;;2.35;0.50;;;;;;;9.24;nan;100254.47;2081875;28;20045;-75
2023/10/19 03:58:58;;;;;;;0.50;0.30;;;;;;;9.24;nan;100257.94;2084143;28;20112;-75
2023/10/19 04:00:00;;;;;;;2.30;0.60;;;;;;;9.24;nan;100257.16;2081846;28;20101;-75
2023/10/19 04:01:05;;;;;;;0.63;0.40;;;;;;;9.15;nan;100258.81;2074177;28;20046;-75
2023/10/19 04:02:13;;;;;;;0.30;0.30;;;;;;;9.11;nan;100255.03;2087129;28;20076;-75
2023/10/19 04:03:17;;;;;;;0.40;0.30;;;;;;;9.09;nan;100259.91;2090977;28;20025;-75
2023/10/19 04:04:20;;;;;;;0.93;0.30;;;;;;;9.05;nan;100254.28;2090190;28;20115;-75
2023/10/19 04:05:23;;;;;;;1.55;0.30;;;;;;;9.01;nan;100248.66;2082688;28;21002;-76
2023/10/19 04:06:27;;;;;;;0.55;0.50;;;;;;;8.99;nan;100253.50;2081916;28;20766;-75
2023/10/19 04:07:31;;;;;;;0.20;0.20;;;;;;;8.93;nan;100246.56;2082684;28;20040;-75
2023/10/19 04:08:37;;;;;;;0.88;0.40;;;;;;;8.88;nan;100248.44;2099018;28;20041;-75
2023/10/19 04:09:56;;;;;;;1.48;0.52;;;;;;;8.84;nan;100253.56;2090178;28;20144;-75
2023/10/19 04:12:38;;;;;;;1.60;0.22;;;;;;;8.79;nan;100250.88;2069632;28;20852;-76
2023/10/19 04:13:40;;;;;;;1.80;0.50;;;;;;;8.80;nan;100255.19;2082867;28;20053;-76
2023/10/19 04:14:46;;;;;;;0.70;0.40;;;;;;;8.69;nan;100245.56;2066087;28;20035;-75
2023/10/19 04:15:49;;;;;;;1.30;0.30;;;;;;;8.74;nan;100254.41;2084006;28;20034;-76
2023/10/19 04:16:51;;;;;;;1.58;0.40;;;;;;;8.75;nan;100252.53;2090701;28;20057;-75
2023/10/19 04:17:55;;;;;;;1.13;0.30;;;;;;;8.73;nan;100249.31;2090059;28;20028;-77
2023/10/19 04:18:58;;;;;;;1.65;0.30;;;;;;;8.75;nan;100257.88;2090627;28;20145;-77
2023/10/19 04:20:08;;;;;;;3.08;0.38;;;;;;;8.70;nan;100242.63;2098441;28;20083;-76
2023/10/19 04:21:10;;;;;;;1.30;0.50;;;;;;;8.72;nan;100234.31;2091384;28;20038;-75
2023/10/19 04:22:22;;;;;;;0.22;0.22;;;;;;;8.76;nan;100238.88;2089495;28;20041;-75
2023/10/19 04:23:28;;;;;;;0.85;0.17;;;;;;;8.79;nan;100234.81;2091463;28;20873;-75
2023/10/19 04:24:32;;;;;;;0.50;0.38;;;;;;;8.77;nan;100243.13;2082285;28;20061;-75
2023/10/19 04:25:37;;;;;;;1.92;0.50;;;;;;;8.77;nan;100247.69;2083325;28;20042;-76
2023/10/19 04:26:39;;;;;;;1.27;0.30;;;;;;;8.77;nan;100236.97;2098435;28;20737;-76
2023/10/19 04:27:49;;;;;;;0.50;0.30;;;;;;;8.81;nan;100235.34;2098463;28;20040;-76
2023/10/19 04:28:55;;;;;;;1.90;0.47;;;;;;;8.79;nan;100229.44;2092050;28;20065;-75
2023/10/19 04:29:57;;;;;;;0.82;0.40;;;;;;;8.81;nan;100222.75;2081390;28;20169;-75
2023/10/19 04:31:06;;;;;;;0.88;0.30;;;;;;;8.82;nan;100240.41;2072839;28;20069;-75
2023/10/19 04:32:08;;;;;;;1.75;0.60;;;;;;;8.74;nan;100237.53;2084101;28;20836;-75
2023/10/19 04:33:10;;;;;;;1.75;0.50;;;;;;;8.70;nan;100239.13;2089697;28;20034;-75
2023/10/19 04:34:11;;;;;;;1.48;0.60;;;;;;;8.66;nan;100240.75;2098178;28;20974;-77
2023/10/19 04:35:15;;;;;;;3.58;0.88;;;;;;;8.68;nan;100252.03;2081806;28;20984;-73
2023/10/19 04:36:21;;;;;;;2.10;0.65;;;;;;;8.53;nan;100256.34;2081867;28;20053;-73
2023/10/19 04:37:24;;;;;;;1.85;0.60;;;;;;;8.45;nan;100254.22;2074909;28;20033;-75
2023/10/19 04:38:30;;;;;;;1.42;0.70;;;;;;;8.39;nan;100252.63;2073857;28;20860;-75
2023/10/19 04:39:34;;;;;;;3.83;0.68;;;;;;;8.32;nan;100252.06;2083184;28;20995;-74
2023/10/19 04:40:36;;;;;;;1.60;0.60;;;;;;;8.30;nan;100256.91;2090467;28;20132;-74
2023/10/19 04:41:39;;;;;;;2.30;0.60;;;;;;;8.27;nan;100263.59;2090123;28;20148;-73
2023/10/19 04:42:40;;;;;;;1.55;0.60;;;;;;;8.18;nan;100251.81;2081898;28;20026;-74
2023/10/19 04:43:49;;;;;;;1.83;0.50;;;;;;;8.07;nan;100266.28;2081802;28;20136;-72
2023/10/19 04:44:51;;;;;;;2.08;0.80;;;;;;;8.02;nan;100256.38;2091098;28;20148;-73
2023/10/19 04:45:53;;;;;;;3.75;1.35;;;;;;;8.04;nan;100256.09;2086129;28;20030;-74
2023/10/19 04:46:55;;;;;;;2.47;0.52;;;;;;;7.99;nan;100262.28;2081833;28;20033;-73
2023/10/19 04:47:59;;;;;;;4.10;0.60;;;;;;;7.96;nan;100259.34;2074309;28;20031;-73
2023/10/19 04:49:00;;;;;;;1.80;0.52;;;;;;;7.90;nan;100279.94;2090085;28;20938;-73
2023/10/19 04:50:02;;;;;;;1.13;0.43;;;;;;;7.83;nan;100260.69;2089529;28;20029;-75
2023/10/19 04:51:05;;;;;;;5.10;0.63;;;;;;;7.76;nan;100268.19;2090082;28;20966;-75
2023/10/19 04:52:07;;;;;;;2.33;0.40;;;;;;;7.72;nan;100256.38;2089878;28;20038;-74
2023/10/19 04:53:09;;;;;;;0.73;0.50;;;;;;;7.68;nan;100252.63;2081083;28;20041;-74
2023/10/19 04:54:14;;;;;;;1.05;0.65;;;;;;;7.64;nan;100255.03;2072397;28;20797;-74
2023/10/19 04:55:19;;;;;;;2.17;0.57;;;;;;;7.67;nan;100257.19;2081988;28;20042;-74
2023/10/19 04:56:21;;;;;;;3.83;0.73;;;;;;;7.65;nan;100253.97;2096584;28;20049;-74
2023/10/19 04:57:23;;;;;;;3.63;0.65;;;;;;;7.62;nan;100249.94;2105235;28;20032;-74
2023/10/19 04:58:25;;;;;;;2.20;0.82;;;;;;;7.63;nan;100250.78;2088584;28;20288;-74
2023/10/19 04:59:32;;;;;;;2.95;0.57;;;;;;;7.65;nan;100265.47;2089370;28;20049;-74
2023/10/19 05:00:38;;;;;;;2.15;0.50;;;;;;;7.61;nan;100253.69;2097080;28;20191;-74
2023/10/19 05:01:44;;;;;;;1.70;0.75;;;;;;;7.62;nan;100255.28;2079719;28;21106;-74
2023/10/19 05:02:45;;;;;;;1.10;0.60;;;;;;;7.61;nan;100263.59;2073039;28;20030;-73
2023/10/19 05:03:48;;;;;;;1.92;0.50;;;;;;;7.60;nan;100257.44;2081054;28;20037;-74
2023/10/19 05:04:49;;;;;;;1.42;0.77;;;;;;;7.56;nan;100251.00;2080412;28;20332;-74
2023/10/19 05:05:51;;;;;;;3.65;0.70;;;;;;;7.51;nan;100260.91;2072337;28;20089;-74
2023/10/19 05:06:53;;;;;;;0.90;0.60;;;;;;;7.51;nan;100259.03;2072197;28;20234;-74
2023/10/19 05:07:54;;;;;;;2.10;0.80;;;;;;;7.51;nan;100256.38;2072307;28;20145;-74
2023/10/19 05:08:59;;;;;;;1.80;0.90;;;;;;;7.51;nan;100258.25;2080503;28;20041;-75
2023/10/19 05:10:02;;;;;;;1.50;0.70;;;;;;;7.47;nan;100257.97;2080749;28;21000;-75
2023/10/19 05:11:04;;;;;;;3.30;0.60;;;;;;;7.44;nan;100250.47;2080453;28;20042;-75
2023/10/19 05:12:09;;;;;;;4.05;0.85;;;;;;;7.42;nan;100252.59;2080287;28;20059;-75
2023/10/19 05:13:14;;;;;;;2.75;1.10;;;;;;;7.45;nan;100253.94;2073286;28;20762;-75
2023/10/19 05:14:15;;;;;;;1.92;1.00;;;;;;;7.41;nan;100261.72;2072173;28;20215;-75
2023/10/19 05:15:18;;;;;;;4.93;1.13;;;;;;;7.39;nan;100245.91;2064088;28;20070;-75
2023/10/19 05:16:19;;;;;;;4.13;0.50;;;;;;;7.34;nan;100253.09;2067121;28;20047;-75
2023/10/19 05:17:23;;;;;;;1.55;0.60;;;;;;;7.31;nan;100248.28;2080959;28;20034;-74
2023/10/19 05:18:28;;;;;;;3.85;0.50;;;;;;;7.34;nan;100264.59;2079975;28;20253;-75
2023/10/19 05:19:30;;;;;;;3.33;0.88;;;;;;;7.29;nan;100245.88;2073553;28;20415;-75